PWSweather.com
Personal Weather Stations
Station Observations
WESTON01
WestonSuperMareGB BS22 8RT

WestonSuperMareGB BS22 8RT

Lat: 51.351508, Lon: -2.933373

Elevation: 15

Station Type: Fine Offset WH1080

http://www.westonweather.co.uk

High Low Average
Temperature 71.3°F21.8°C 58.7°F14.8°C 64.3°F17.9°C
Dew Point 64.0°F17.8°C 52.7°F11.5°C 58.6°F14.8°C
Winds 13.0 mph 20.9 kmh Calm Calm 5.0 mph W8.0 kmh W
Wind Gusts 22.3 mph35.9 kmh -- 8.0 mph12.9 kmh
Humidity 95% 65% 83%
Pressure 29.90 in1012.5 mb 29.67 in1004.7 mb -
Precipitation 0.54 in13.7 mm - -
Hour Temp Dew Point Humidity Winds Wind Gusts Pressure Precip Precip Rate Daily Precip Total
12:00 AM 59.6°F15.3°C 57.6°F14.2°C 93% 2.7 mph S4.3 kmh S 4.8 mph7.7 kmh 29.67 in1004.7 mb 0.04 in1.0 mm 0.00 in0.0 mm 0.04 in1.0 mm
12:05 AM 59.6°F15.3°C 57.6°F14.2°C 93% 2.8 mph S4.5 kmh S 4.8 mph7.7 kmh 29.67 in1004.7 mb 0.04 in1.0 mm 0.00 in0.0 mm 0.04 in1.0 mm
12:10 AM 59.6°F15.3°C 57.6°F14.2°C 93% 2.4 mph S3.9 kmh S 3.9 mph6.3 kmh 29.67 in1004.7 mb 0.00 in0.0 mm 0.00 in0.0 mm 0.04 in1.0 mm
12:15 AM 59.6°F15.3°C 57.6°F14.2°C 93% 2.3 mph SSW3.7 kmh SSW 4.5 mph7.2 kmh 29.67 in1004.7 mb 0.00 in0.0 mm 0.00 in0.0 mm 0.04 in1.0 mm
12:20 AM 59.6°F15.3°C 57.6°F14.2°C 93% 1.8 mph SW2.9 kmh SW 4.5 mph7.2 kmh 29.67 in1004.7 mb 0.00 in0.0 mm 0.00 in0.0 mm 0.04 in1.0 mm
12:25 AM 59.5°F15.3°C 57.7°F14.3°C 94% 0.9 mph WSW1.4 kmh WSW 2.1 mph3.4 kmh 29.67 in1004.7 mb 0.05 in1.3 mm 0.60 in15.2 mm 0.09 in2.3 mm
12:30 AM 59.5°F15.3°C 57.7°F14.3°C 94% 0.3 mph SW0.5 kmh SW 1.8 mph2.9 kmh 29.67 in1004.7 mb 0.09 in2.3 mm 0.48 in12.2 mm 0.13 in3.3 mm
12:35 AM 59.5°F15.3°C 57.7°F14.3°C 94% 0.4 mph W0.6 kmh W 1.8 mph2.9 kmh 29.67 in1004.7 mb 0.09 in2.3 mm 0.00 in0.0 mm 0.13 in3.3 mm
12:40 AM 59.5°F15.3°C 57.7°F14.3°C 94% 0.3 mph NW0.5 kmh NW 1.8 mph2.9 kmh 29.67 in1004.7 mb 0.13 in3.3 mm 0.48 in12.2 mm 0.17 in4.3 mm
12:45 AM 59.5°F15.3°C 57.7°F14.3°C 94% 0.1 mph NW0.2 kmh NW 1.5 mph2.4 kmh 29.67 in1004.7 mb 0.13 in3.3 mm 0.00 in0.0 mm 0.17 in4.3 mm
12:50 AM 59.6°F15.3°C 57.9°F14.4°C 94% 0.3 mph S0.5 kmh S 1.5 mph2.4 kmh 29.67 in1004.7 mb 0.21 in5.3 mm 0.96 in24.4 mm 0.25 in6.4 mm
12:55 AM 59.5°F15.3°C 57.7°F14.3°C 94% 0.6 mph SW1.0 kmh SW 3.3 mph5.3 kmh 29.67 in1004.7 mb 0.25 in6.4 mm 0.48 in12.2 mm 0.29 in7.4 mm
01:00 AM 59.5°F15.3°C 57.7°F14.3°C 94% 1.4 mph SW2.3 kmh SW 3.6 mph5.8 kmh 29.67 in1004.7 mb 0.34 in8.6 mm 0.10 in2.5 mm 0.38 in9.7 mm
01:05 AM 59.6°F15.3°C 57.9°F14.4°C 94% 2.4 mph SSW3.9 kmh SSW 4.8 mph7.7 kmh 29.67 in1004.7 mb 0.42 in10.7 mm 0.96 in24.4 mm 0.46 in11.7 mm
01:10 AM 59.5°F15.3°C 57.7°F14.3°C 94% 2.4 mph SSW3.9 kmh SSW 4.8 mph7.7 kmh 29.67 in1004.7 mb 0.42 in10.7 mm 0.00 in0.0 mm 0.46 in11.7 mm
01:15 AM 59.5°F15.3°C 57.7°F14.3°C 94% 1.1 mph S1.8 kmh S 3.0 mph4.8 kmh 29.67 in1004.7 mb 0.42 in10.7 mm 0.00 in0.0 mm 0.46 in11.7 mm
01:20 AM 59.5°F15.3°C 57.7°F14.3°C 94% 0.5 mph S0.8 kmh S 2.1 mph3.4 kmh 29.67 in1004.7 mb 0.46 in11.7 mm 0.48 in12.2 mm 0.50 in12.7 mm
01:25 AM 59.5°F15.3°C 57.7°F14.3°C 94% 0.3 mph S0.5 kmh S 2.1 mph3.4 kmh 29.67 in1004.7 mb 0.41 in10.4 mm 0.00 in0.0 mm 0.50 in12.7 mm
01:30 AM 59.5°F15.3°C 57.7°F14.3°C 94% Calm Calm -- 29.67 in1004.7 mb 0.37 in9.4 mm 0.00 in0.0 mm 0.50 in12.7 mm
01:35 AM 59.5°F15.3°C 57.7°F14.3°C 94% Calm Calm -- 29.67 in1004.7 mb 0.37 in9.4 mm 0.00 in0.0 mm 0.50 in12.7 mm
01:40 AM 59.5°F15.3°C 57.7°F14.3°C 94% Calm Calm -- 29.67 in1004.7 mb 0.33 in8.4 mm 0.00 in0.0 mm 0.50 in12.7 mm
01:45 AM 59.5°F15.3°C 57.7°F14.3°C 94% Calm Calm -- 29.67 in1004.7 mb 0.33 in8.4 mm 0.00 in0.0 mm 0.50 in12.7 mm
01:50 AM 59.5°F15.3°C 58.0°F14.4°C 95% Calm Calm -- 29.67 in1004.7 mb 0.25 in6.4 mm 0.00 in0.0 mm 0.50 in12.7 mm
01:55 AM 59.5°F15.3°C 58.0°F14.4°C 95% 0.2 mph WSW0.3 kmh WSW 2.7 mph4.3 kmh 29.67 in1004.7 mb 0.21 in5.3 mm 0.00 in0.0 mm 0.50 in12.7 mm
02:00 AM 59.5°F15.3°C 58.0°F14.4°C 95% 1.0 mph WSW1.6 kmh WSW 3.0 mph4.8 kmh 29.67 in1004.7 mb 0.08 in2.0 mm 0.00 in0.0 mm 0.50 in12.7 mm
02:05 AM 59.5°F15.3°C 58.0°F14.4°C 95% 1.9 mph WSW3.1 kmh WSW 3.6 mph5.8 kmh 29.67 in1004.7 mb 0.04 in1.0 mm 0.00 in0.0 mm 0.50 in12.7 mm
02:10 AM 59.5°F15.3°C 58.0°F14.4°C 95% 2.7 mph WSW4.3 kmh WSW 4.5 mph7.2 kmh 29.67 in1004.7 mb 0.04 in1.0 mm 0.00 in0.0 mm 0.50 in12.7 mm
02:15 AM 59.5°F15.3°C 58.0°F14.4°C 95% 3.5 mph WSW5.6 kmh WSW 4.5 mph7.2 kmh 29.67 in1004.7 mb 0.04 in1.0 mm 0.00 in0.0 mm 0.50 in12.7 mm
02:20 AM 59.5°F15.3°C 58.0°F14.4°C 95% 2.1 mph WSW3.4 kmh WSW 4.5 mph7.2 kmh 29.67 in1004.7 mb 0.00 in0.0 mm 0.00 in0.0 mm 0.50 in12.7 mm
02:25 AM 59.3°F15.2°C 57.8°F14.3°C 95% 0.7 mph WSW1.1 kmh WSW 3.9 mph6.3 kmh 29.67 in1004.7 mb 0.00 in0.0 mm 0.00 in0.0 mm 0.50 in12.7 mm
02:30 AM 59.1°F15.1°C 57.7°F14.3°C 95% 0.7 mph WSW1.1 kmh WSW 2.7 mph4.3 kmh 29.67 in1004.7 mb 0.00 in0.0 mm 0.00 in0.0 mm 0.50 in12.7 mm
02:35 AM 59.1°F15.1°C 57.7°F14.3°C 95% 0.5 mph WSW0.8 kmh WSW 2.1 mph3.4 kmh 29.67 in1004.7 mb 0.00 in0.0 mm 0.00 in0.0 mm 0.50 in12.7 mm
02:40 AM 58.9°F14.9°C 57.5°F14.2°C 95% 0.2 mph WSW0.3 kmh WSW 1.8 mph2.9 kmh 29.67 in1004.7 mb 0.00 in0.0 mm 0.00 in0.0 mm 0.50 in12.7 mm
02:45 AM 58.9°F14.9°C 57.5°F14.2°C 95% 0.2 mph WSW0.3 kmh WSW 1.8 mph2.9 kmh 29.67 in1004.7 mb 0.00 in0.0 mm 0.00 in0.0 mm 0.50 in12.7 mm
02:50 AM 58.9°F14.9°C 57.5°F14.2°C 95% Calm Calm -- 29.67 in1004.7 mb 0.00 in0.0 mm 0.00 in0.0 mm 0.50 in12.7 mm
02:55 AM 59.1°F15.1°C 57.7°F14.3°C 95% 0.1 mph S0.2 kmh S 2.1 mph3.4 kmh 29.67 in1004.7 mb 0.00 in0.0 mm 0.00 in0.0 mm 0.50 in12.7 mm
03:00 AM 59.3°F15.2°C 57.8°F14.3°C 95% 1.1 mph S1.8 kmh S 3.9 mph6.3 kmh 29.67 in1004.7 mb 0.00 in0.0 mm 0.00 in0.0 mm 0.50 in12.7 mm
03:05 AM 59.3°F15.2°C 57.8°F14.3°C 95% 1.5 mph S2.4 kmh S 3.9 mph6.3 kmh 29.67 in1004.7 mb 0.00 in0.0 mm 0.00 in0.0 mm 0.50 in12.7 mm
03:10 AM 59.3°F15.2°C 57.8°F14.3°C 95% 0.2 mph S0.3 kmh S 1.5 mph2.4 kmh 29.67 in1004.7 mb 0.00 in0.0 mm 0.00 in0.0 mm 0.50 in12.7 mm
03:15 AM 59.3°F15.2°C 57.8°F14.3°C 95% Calm Calm -- 29.67 in1004.7 mb 0.00 in0.0 mm 0.00 in0.0 mm 0.50 in12.7 mm
03:20 AM 59.3°F15.2°C 57.8°F14.3°C 95% 0.1 mph S0.2 kmh S 1.5 mph2.4 kmh 29.67 in1004.7 mb 0.00 in0.0 mm 0.00 in0.0 mm 0.50 in12.7 mm
03:25 AM 59.3°F15.2°C 57.8°F14.3°C 95% 0.2 mph SW0.3 kmh SW 1.8 mph2.9 kmh 29.67 in1004.7 mb 0.00 in0.0 mm 0.00 in0.0 mm 0.50 in12.7 mm
03:30 AM 59.3°F15.2°C 57.8°F14.3°C 95% 2.0 mph WSW3.2 kmh WSW 6.2 mph10.0 kmh 29.67 in1004.7 mb 0.00 in0.0 mm 0.00 in0.0 mm 0.50 in12.7 mm
03:35 AM 59.5°F15.3°C 58.0°F14.4°C 95% 2.8 mph W4.5 kmh W 6.2 mph10.0 kmh 29.67 in1004.7 mb 0.00 in0.0 mm 0.00 in0.0 mm 0.50 in12.7 mm
03:40 AM 59.5°F15.3°C 58.0°F14.4°C 95% 2.2 mph WNW3.5 kmh WNW 5.1 mph8.2 kmh 29.67 in1004.7 mb 0.00 in0.0 mm 0.00 in0.0 mm 0.50 in12.7 mm
03:45 AM 59.5°F15.3°C 58.0°F14.4°C 95% 1.4 mph WNW2.3 kmh WNW 3.3 mph5.3 kmh 29.67 in1004.7 mb 0.00 in0.0 mm 0.00 in0.0 mm 0.50 in12.7 mm
03:50 AM 59.5°F15.3°C 58.0°F14.4°C 95% 2.1 mph NW3.4 kmh NW 4.5 mph7.2 kmh 29.67 in1004.7 mb 0.00 in0.0 mm 0.00 in0.0 mm 0.50 in12.7 mm
03:55 AM 59.5°F15.3°C 58.0°F14.4°C 95% 2.5 mph NW4.0 kmh NW 4.5 mph7.2 kmh 29.67 in1004.7 mb 0.00 in0.0 mm 0.00 in0.0 mm 0.50 in12.7 mm
04:00 AM 59.5°F15.3°C 58.0°F14.4°C 95% 2.4 mph WNW3.9 kmh WNW 5.1 mph8.2 kmh 29.67 in1004.7 mb 0.00 in0.0 mm 0.00 in0.0 mm 0.50 in12.7 mm
04:05 AM 59.5°F15.3°C 58.0°F14.4°C 95% 2.2 mph NW3.5 kmh NW 5.1 mph8.2 kmh 29.67 in1004.7 mb 0.00 in0.0 mm 0.00 in0.0 mm 0.50 in12.7 mm
04:10 AM 59.5°F15.3°C 58.0°F14.4°C 95% 1.4 mph NW2.3 kmh NW 3.6 mph5.8 kmh 29.67 in1004.7 mb 0.00 in0.0 mm 0.00 in0.0 mm 0.50 in12.7 mm
04:15 AM 59.5°F15.3°C 58.0°F14.4°C 95% 1.3 mph NW2.1 kmh NW 3.3 mph5.3 kmh 29.67 in1004.7 mb 0.00 in0.0 mm 0.00 in0.0 mm 0.50 in12.7 mm
04:20 AM 59.5°F15.3°C 58.0°F14.4°C 95% 1.7 mph NW2.7 kmh NW 4.5 mph7.2 kmh 29.67 in1004.7 mb 0.00 in0.0 mm 0.00 in0.0 mm 0.50 in12.7 mm
04:25 AM 59.5°F15.3°C 58.0°F14.4°C 95% 2.3 mph NW3.7 kmh NW 4.5 mph7.2 kmh 29.67 in1004.7 mb 0.00 in0.0 mm 0.00 in0.0 mm 0.50 in12.7 mm
04:35 AM 59.5°F15.3°C 58.0°F14.4°C 95% 0.9 mph NW1.4 kmh NW 3.6 mph5.8 kmh 29.67 in1004.7 mb 0.00 in0.0 mm 0.00 in0.0 mm 0.50 in12.7 mm
04:40 AM 59.5°F15.3°C 58.0°F14.4°C 95% 0.7 mph NW1.1 kmh NW 3.6 mph5.8 kmh 29.67 in1004.7 mb 0.00 in0.0 mm 0.00 in0.0 mm 0.50 in12.7 mm
04:45 AM 59.5°F15.3°C 58.0°F14.4°C 95% 0.6 mph WNW1.0 kmh WNW 3.6 mph5.8 kmh 29.67 in1004.7 mb 0.00 in0.0 mm 0.00 in0.0 mm 0.50 in12.7 mm
04:50 AM 59.5°F15.3°C 58.0°F14.4°C 95% 1.3 mph W2.1 kmh W 3.9 mph6.3 kmh 29.67 in1004.7 mb 0.00 in0.0 mm 0.00 in0.0 mm 0.50 in12.7 mm
04:55 AM 59.5°F15.3°C 58.0°F14.4°C 95% 1.2 mph WNW1.9 kmh WNW 3.9 mph6.3 kmh 29.67 in1004.7 mb 0.00 in0.0 mm 0.00 in0.0 mm 0.50 in12.7 mm
05:00 AM 59.5°F15.3°C 58.0°F14.4°C 95% 1.0 mph WNW1.6 kmh WNW 2.7 mph4.3 kmh 29.67 in1004.7 mb 0.00 in0.0 mm 0.00 in0.0 mm 0.50 in12.7 mm
05:05 AM 59.5°F15.3°C 58.0°F14.4°C 95% 1.2 mph WNW1.9 kmh WNW 3.3 mph5.3 kmh 29.67 in1004.7 mb 0.00 in0.0 mm 0.00 in0.0 mm 0.50 in12.7 mm
05:10 AM 59.5°F15.3°C 58.0°F14.4°C 95% 1.3 mph W2.1 kmh W 3.3 mph5.3 kmh 29.67 in1004.7 mb 0.00 in0.0 mm 0.00 in0.0 mm 0.50 in12.7 mm
05:15 AM 59.5°F15.3°C 58.0°F14.4°C 95% 1.2 mph W1.9 kmh W 3.3 mph5.3 kmh 29.67 in1004.7 mb 0.00 in0.0 mm 0.00 in0.0 mm 0.50 in12.7 mm
05:20 AM 59.5°F15.3°C 58.0°F14.4°C 95% 0.8 mph W1.3 kmh W 1.5 mph2.4 kmh 29.67 in1004.7 mb 0.00 in0.0 mm 0.00 in0.0 mm 0.50 in12.7 mm
05:25 AM 59.5°F15.3°C 58.0°F14.4°C 95% 0.5 mph WSW0.8 kmh WSW 2.7 mph4.3 kmh 29.67 in1004.7 mb 0.00 in0.0 mm 0.00 in0.0 mm 0.50 in12.7 mm
05:30 AM 59.5°F15.3°C 58.0°F14.4°C 95% 0.8 mph W1.3 kmh W 2.7 mph4.3 kmh 29.67 in1004.7 mb 0.00 in0.0 mm 0.00 in0.0 mm 0.50 in12.7 mm
05:35 AM 59.5°F15.3°C 58.0°F14.4°C 95% 1.6 mph WNW2.6 kmh WNW 4.2 mph6.8 kmh 29.70 in1005.8 mb 0.00 in0.0 mm 0.00 in0.0 mm 0.50 in12.7 mm
05:40 AM 59.5°F15.3°C 58.0°F14.4°C 95% 2.4 mph W3.9 kmh W 4.2 mph6.8 kmh 29.70 in1005.8 mb 0.00 in0.0 mm 0.00 in0.0 mm 0.50 in12.7 mm
05:45 AM 59.5°F15.3°C 58.0°F14.4°C 95% 2.3 mph W3.7 kmh W 4.2 mph6.8 kmh 29.70 in1005.8 mb 0.00 in0.0 mm 0.00 in0.0 mm 0.50 in12.7 mm
05:50 AM 59.5°F15.3°C 58.0°F14.4°C 95% 2.4 mph WNW3.9 kmh WNW 5.4 mph8.7 kmh 29.70 in1005.8 mb 0.00 in0.0 mm 0.00 in0.0 mm 0.50 in12.7 mm
05:55 AM 59.3°F15.2°C 57.8°F14.3°C 95% 3.4 mph WNW5.5 kmh WNW 5.4 mph8.7 kmh 29.70 in1005.8 mb 0.00 in0.0 mm 0.00 in0.0 mm 0.50 in12.7 mm
06:00 AM 59.1°F15.1°C 57.7°F14.3°C 95% 4.5 mph WNW7.2 kmh WNW 8.6 mph13.8 kmh 29.70 in1005.8 mb 0.00 in0.0 mm 0.00 in0.0 mm 0.50 in12.7 mm
06:05 AM 58.9°F14.9°C 57.5°F14.2°C 95% 5.8 mph WNW9.3 kmh WNW 8.6 mph13.8 kmh 29.70 in1005.8 mb 0.00 in0.0 mm 0.00 in0.0 mm 0.50 in12.7 mm
06:10 AM 58.7°F14.8°C 57.3°F14.1°C 95% 5.9 mph W9.5 kmh W 8.6 mph13.8 kmh 29.70 in1005.8 mb 0.00 in0.0 mm 0.00 in0.0 mm 0.50 in12.7 mm
06:15 AM 58.9°F14.9°C 57.5°F14.2°C 95% 5.2 mph WNW8.4 kmh WNW 7.7 mph12.4 kmh 29.70 in1005.8 mb 0.00 in0.0 mm 0.00 in0.0 mm 0.50 in12.7 mm
06:20 AM 59.3°F15.2°C 57.8°F14.3°C 95% 5.6 mph WNW9.0 kmh WNW 10.4 mph16.7 kmh 29.70 in1005.8 mb 0.00 in0.0 mm 0.00 in0.0 mm 0.50 in12.7 mm
06:25 AM 59.6°F15.3°C 58.2°F14.6°C 95% 6.4 mph WNW10.3 kmh WNW 10.4 mph16.7 kmh 29.70 in1005.8 mb 0.00 in0.0 mm 0.00 in0.0 mm 0.50 in12.7 mm
06:30 AM 60.2°F15.7°C 58.7°F14.8°C 95% 5.4 mph NW8.7 kmh NW 10.4 mph16.7 kmh 29.70 in1005.8 mb 0.00 in0.0 mm 0.00 in0.0 mm 0.50 in12.7 mm
06:35 AM 60.5°F15.8°C 59.1°F15.1°C 95% 4.0 mph NW6.4 kmh NW 8.3 mph13.4 kmh 29.70 in1005.8 mb 0.00 in0.0 mm 0.00 in0.0 mm 0.50 in12.7 mm
06:40 AM 61.1°F16.2°C 59.6°F15.3°C 95% 5.8 mph NW9.3 kmh NW 8.9 mph14.3 kmh 29.70 in1005.8 mb 0.00 in0.0 mm 0.00 in0.0 mm 0.50 in12.7 mm
06:45 AM 61.4°F16.3°C 60.0°F15.6°C 95% 6.0 mph WNW9.7 kmh WNW 9.5 mph15.3 kmh 29.70 in1005.8 mb 0.00 in0.0 mm 0.00 in0.0 mm 0.50 in12.7 mm
06:50 AM 61.6°F16.4°C 59.9°F15.5°C 94% 4.9 mph WNW7.9 kmh WNW 9.5 mph15.3 kmh 29.73 in1006.8 mb 0.00 in0.0 mm 0.00 in0.0 mm 0.50 in12.7 mm
06:55 AM 61.8°F16.6°C 60.0°F15.6°C 94% 5.7 mph NW9.2 kmh NW 9.5 mph15.3 kmh 29.73 in1006.8 mb 0.00 in0.0 mm 0.00 in0.0 mm 0.50 in12.7 mm
07:00 AM 62.0°F16.7°C 60.2°F15.7°C 94% 6.4 mph WNW10.3 kmh WNW 9.5 mph15.3 kmh 29.73 in1006.8 mb 0.00 in0.0 mm 0.00 in0.0 mm 0.50 in12.7 mm
07:05 AM 62.2°F16.8°C 60.4°F15.8°C 94% 5.9 mph NW9.5 kmh NW 9.5 mph15.3 kmh 29.73 in1006.8 mb 0.00 in0.0 mm 0.00 in0.0 mm 0.50 in12.7 mm
07:10 AM 62.3°F16.8°C 60.6°F15.9°C 94% 5.4 mph NW8.7 kmh NW 9.5 mph15.3 kmh 29.73 in1006.8 mb 0.00 in0.0 mm 0.00 in0.0 mm 0.50 in12.7 mm
07:15 AM 62.7°F17.1°C 60.6°F15.9°C 93% 5.6 mph NW9.0 kmh NW 11.3 mph18.2 kmh 29.73 in1006.8 mb 0.00 in0.0 mm 0.00 in0.0 mm 0.50 in12.7 mm
07:20 AM 62.7°F17.1°C 60.6°F15.9°C 93% 5.5 mph WNW8.9 kmh WNW 11.3 mph18.2 kmh 29.73 in1006.8 mb 0.00 in0.0 mm 0.00 in0.0 mm 0.50 in12.7 mm
07:25 AM 62.7°F17.1°C 60.6°F15.9°C 93% 4.9 mph WNW7.9 kmh WNW 7.1 mph11.4 kmh 29.73 in1006.8 mb 0.00 in0.0 mm 0.00 in0.0 mm 0.50 in12.7 mm
07:30 AM 62.7°F17.1°C 60.6°F15.9°C 93% 5.9 mph W9.5 kmh W 8.6 mph13.8 kmh 29.73 in1006.8 mb 0.00 in0.0 mm 0.00 in0.0 mm 0.50 in12.7 mm
07:35 AM 62.7°F17.1°C 60.3°F15.7°C 92% 6.6 mph WNW10.6 kmh WNW 8.6 mph13.8 kmh 29.73 in1006.8 mb 0.00 in0.0 mm 0.00 in0.0 mm 0.50 in12.7 mm
07:40 AM 62.7°F17.1°C 60.3°F15.7°C 92% 5.1 mph NNW8.2 kmh NNW 8.0 mph12.9 kmh 29.73 in1006.8 mb 0.00 in0.0 mm 0.00 in0.0 mm 0.50 in12.7 mm
07:45 AM 63.0°F17.2°C 60.7°F15.9°C 92% 4.5 mph NW7.2 kmh NW 6.5 mph10.5 kmh 29.73 in1006.8 mb 0.00 in0.0 mm 0.00 in0.0 mm 0.50 in12.7 mm
07:50 AM 63.0°F17.2°C 60.7°F15.9°C 92% 5.2 mph NW8.4 kmh NW 6.5 mph10.5 kmh 29.75 in1007.5 mb 0.00 in0.0 mm 0.00 in0.0 mm 0.50 in12.7 mm
07:55 AM 63.2°F17.3°C 60.6°F15.9°C 91% 5.1 mph NW8.2 kmh NW 6.5 mph10.5 kmh 29.75 in1007.5 mb 0.00 in0.0 mm 0.00 in0.0 mm 0.50 in12.7 mm
08:00 AM 63.4°F17.4°C 60.7°F15.9°C 91% 4.9 mph NW7.9 kmh NW 7.1 mph11.4 kmh 29.75 in1007.5 mb 0.00 in0.0 mm 0.00 in0.0 mm 0.50 in12.7 mm
08:05 AM 63.8°F17.7°C 61.1°F16.2°C 91% 5.1 mph NNW8.2 kmh NNW 8.0 mph12.9 kmh 29.75 in1007.5 mb 0.00 in0.0 mm 0.00 in0.0 mm 0.50 in12.7 mm
08:10 AM 64.3°F17.9°C 61.6°F16.4°C 91% 5.3 mph NNW8.5 kmh NNW 8.0 mph12.9 kmh 29.75 in1007.5 mb 0.00 in0.0 mm 0.00 in0.0 mm 0.50 in12.7 mm
08:15 AM 64.7°F18.2°C 62.0°F16.7°C 91% 5.5 mph NW8.9 kmh NW 10.1 mph16.3 kmh 29.75 in1007.5 mb 0.00 in0.0 mm 0.00 in0.0 mm 0.50 in12.7 mm
08:20 AM 64.7°F18.2°C 61.7°F16.5°C 90% 5.4 mph NW8.7 kmh NW 10.1 mph16.3 kmh 29.75 in1007.5 mb 0.00 in0.0 mm 0.00 in0.0 mm 0.50 in12.7 mm
08:25 AM 65.0°F18.3°C 61.7°F16.5°C 89% 3.9 mph NW6.3 kmh NW 5.1 mph8.2 kmh 29.75 in1007.5 mb 0.00 in0.0 mm 0.00 in0.0 mm 0.50 in12.7 mm
08:30 AM 65.4°F18.6°C 62.1°F16.7°C 89% 4.1 mph NW6.6 kmh NW 8.0 mph12.9 kmh 29.75 in1007.5 mb 0.00 in0.0 mm 0.00 in0.0 mm 0.50 in12.7 mm
08:35 AM 65.8°F18.8°C 62.4°F16.9°C 89% 4.7 mph WNW7.6 kmh WNW 8.0 mph12.9 kmh 29.73 in1006.8 mb 0.00 in0.0 mm 0.00 in0.0 mm 0.50 in12.7 mm
08:40 AM 66.3°F19.1°C 62.6°F17.0°C 88% 3.6 mph W5.8 kmh W 6.0 mph9.7 kmh 29.73 in1006.8 mb 0.00 in0.0 mm 0.00 in0.0 mm 0.50 in12.7 mm
08:45 AM 66.3°F19.1°C 62.3°F16.8°C 87% 5.1 mph WNW8.2 kmh WNW 8.6 mph13.8 kmh 29.73 in1006.8 mb 0.00 in0.0 mm 0.00 in0.0 mm 0.50 in12.7 mm
08:50 AM 66.1°F18.9°C 62.1°F16.7°C 87% 6.2 mph NW10.0 kmh NW 8.6 mph13.8 kmh 29.75 in1007.5 mb 0.00 in0.0 mm 0.00 in0.0 mm 0.50 in12.7 mm
08:55 AM 66.1°F18.9°C 61.8°F16.6°C 86% 4.2 mph NW6.8 kmh NW 8.0 mph12.9 kmh 29.75 in1007.5 mb 0.00 in0.0 mm 0.00 in0.0 mm 0.50 in12.7 mm
09:00 AM 66.1°F18.9°C 61.8°F16.6°C 86% 3.6 mph WNW5.8 kmh WNW 5.7 mph9.2 kmh 29.75 in1007.5 mb 0.00 in0.0 mm 0.00 in0.0 mm 0.50 in12.7 mm
09:05 AM 65.9°F18.8°C 61.3°F16.3°C 85% 3.9 mph WNW6.3 kmh WNW 7.1 mph11.4 kmh 29.75 in1007.5 mb 0.00 in0.0 mm 0.00 in0.0 mm 0.50 in12.7 mm
09:10 AM 66.1°F18.9°C 61.5°F16.4°C 85% 4.9 mph W7.9 kmh W 8.6 mph13.8 kmh 29.73 in1006.8 mb 0.00 in0.0 mm 0.00 in0.0 mm 0.50 in12.7 mm
09:15 AM 66.7°F19.3°C 62.0°F16.7°C 85% 3.9 mph W6.3 kmh W 8.6 mph13.8 kmh 29.73 in1006.8 mb 0.00 in0.0 mm 0.00 in0.0 mm 0.50 in12.7 mm
09:20 AM 66.8°F19.3°C 62.2°F16.8°C 85% 3.4 mph WNW5.5 kmh WNW 8.0 mph12.9 kmh 29.75 in1007.5 mb 0.00 in0.0 mm 0.00 in0.0 mm 0.50 in12.7 mm
09:25 AM 67.2°F19.6°C 62.2°F16.8°C 84% 4.3 mph NW6.9 kmh NW 8.0 mph12.9 kmh 29.75 in1007.5 mb 0.00 in0.0 mm 0.00 in0.0 mm 0.50 in12.7 mm
09:30 AM 67.4°F19.7°C 62.0°F16.7°C 83% 3.5 mph NNW5.6 kmh NNW 7.1 mph11.4 kmh 29.75 in1007.5 mb 0.00 in0.0 mm 0.00 in0.0 mm 0.50 in12.7 mm
09:35 AM 67.6°F19.8°C 61.9°F16.6°C 82% 3.9 mph NW6.3 kmh NW 7.7 mph12.4 kmh 29.75 in1007.5 mb 0.00 in0.0 mm 0.00 in0.0 mm 0.50 in12.7 mm
09:40 AM 67.4°F19.7°C 61.7°F16.5°C 82% 4.6 mph NW7.4 kmh NW 8.0 mph12.9 kmh 29.75 in1007.5 mb 0.00 in0.0 mm 0.00 in0.0 mm 0.50 in12.7 mm
09:45 AM 67.4°F19.7°C 61.3°F16.3°C 81% 3.8 mph NW6.1 kmh NW 8.0 mph12.9 kmh 29.75 in1007.5 mb 0.00 in0.0 mm 0.00 in0.0 mm 0.50 in12.7 mm
09:50 AM 67.4°F19.7°C 61.3°F16.3°C 81% 3.2 mph WNW5.1 kmh WNW 10.4 mph16.7 kmh 29.75 in1007.5 mb 0.00 in0.0 mm 0.00 in0.0 mm 0.50 in12.7 mm
09:55 AM 68.3°F20.2°C 62.6°F17.0°C 82% 3.6 mph WNW5.8 kmh WNW 10.4 mph16.7 kmh 29.75 in1007.5 mb 0.00 in0.0 mm 0.00 in0.0 mm 0.50 in12.7 mm
10:00 AM 68.4°F20.2°C 62.4°F16.9°C 81% 4.4 mph WNW7.1 kmh WNW 8.0 mph12.9 kmh 29.75 in1007.5 mb 0.00 in0.0 mm 0.00 in0.0 mm 0.50 in12.7 mm
10:05 AM 68.4°F20.2°C 62.0°F16.7°C 80% 5.1 mph WNW8.2 kmh WNW 7.4 mph11.9 kmh 29.75 in1007.5 mb 0.00 in0.0 mm 0.00 in0.0 mm 0.50 in12.7 mm
10:10 AM 68.1°F20.1°C 61.7°F16.5°C 80% 4.8 mph W7.7 kmh W 7.1 mph11.4 kmh 29.75 in1007.5 mb 0.00 in0.0 mm 0.00 in0.0 mm 0.50 in12.7 mm
10:15 AM 67.6°F19.8°C 61.2°F16.2°C 80% 5.8 mph W9.3 kmh W 9.5 mph15.3 kmh 29.75 in1007.5 mb 0.00 in0.0 mm 0.00 in0.0 mm 0.50 in12.7 mm
10:20 AM 67.6°F19.8°C 61.2°F16.2°C 80% 5.4 mph W8.7 kmh W 9.5 mph15.3 kmh 29.75 in1007.5 mb 0.00 in0.0 mm 0.00 in0.0 mm 0.50 in12.7 mm
10:25 AM 66.8°F19.3°C 60.8°F16.0°C 81% 3.0 mph WNW4.8 kmh WNW 5.7 mph9.2 kmh 29.75 in1007.5 mb 0.04 in1.0 mm 0.48 in12.2 mm 0.54 in13.7 mm
10:30 AM 66.3°F19.1°C 60.6°F15.9°C 82% 2.3 mph WNW3.7 kmh WNW 3.6 mph5.8 kmh 29.75 in1007.5 mb 0.04 in1.0 mm 0.00 in0.0 mm 0.54 in13.7 mm
10:35 AM 66.1°F18.9°C 60.5°F15.8°C 82% 1.3 mph NW2.1 kmh NW 3.6 mph5.8 kmh 29.75 in1007.5 mb 0.04 in1.0 mm 0.00 in0.0 mm 0.54 in13.7 mm
10:40 AM 65.9°F18.8°C 60.6°F15.9°C 83% 3.6 mph WSW5.8 kmh WSW 8.0 mph12.9 kmh 29.75 in1007.5 mb 0.04 in1.0 mm 0.00 in0.0 mm 0.54 in13.7 mm
10:45 AM 65.8°F18.8°C 60.8°F16.0°C 84% 5.6 mph W9.0 kmh W 8.3 mph13.4 kmh 29.75 in1007.5 mb 0.04 in1.0 mm 0.00 in0.0 mm 0.54 in13.7 mm
10:50 AM 65.4°F18.6°C 60.4°F15.8°C 84% 6.9 mph W11.1 kmh W 11.9 mph19.2 kmh 29.75 in1007.5 mb 0.04 in1.0 mm 0.00 in0.0 mm 0.54 in13.7 mm
10:55 AM 65.0°F18.3°C 60.1°F15.6°C 84% 8.4 mph W13.5 kmh W 11.9 mph19.2 kmh 29.75 in1007.5 mb 0.04 in1.0 mm 0.00 in0.0 mm 0.54 in13.7 mm
11:00 AM 65.0°F18.3°C 60.1°F15.6°C 84% 7.8 mph W12.6 kmh W 11.9 mph19.2 kmh 29.75 in1007.5 mb 0.04 in1.0 mm 0.00 in0.0 mm 0.54 in13.7 mm
11:05 AM 65.0°F18.3°C 60.1°F15.6°C 84% 6.6 mph W10.6 kmh W 10.4 mph16.7 kmh 29.75 in1007.5 mb 0.04 in1.0 mm 0.00 in0.0 mm 0.54 in13.7 mm
11:10 AM 65.2°F18.4°C 60.6°F15.9°C 85% 6.6 mph W10.6 kmh W 10.4 mph16.7 kmh 29.75 in1007.5 mb 0.04 in1.0 mm 0.00 in0.0 mm 0.54 in13.7 mm
11:15 AM 65.9°F18.8°C 61.6°F16.4°C 86% 6.1 mph W9.8 kmh W 8.0 mph12.9 kmh 29.75 in1007.5 mb 0.04 in1.0 mm 0.00 in0.0 mm 0.54 in13.7 mm
11:20 AM 66.1°F18.9°C 61.8°F16.6°C 86% 7.1 mph W11.4 kmh W 9.8 mph15.8 kmh 29.78 in1008.5 mb 0.04 in1.0 mm 0.00 in0.0 mm 0.54 in13.7 mm
11:25 AM 66.7°F19.3°C 62.3°F16.8°C 86% 6.9 mph W11.1 kmh W 9.8 mph15.8 kmh 29.78 in1008.5 mb 0.00 in0.0 mm 0.00 in0.0 mm 0.54 in13.7 mm
11:30 AM 67.6°F19.8°C 62.9°F17.2°C 85% 6.8 mph WNW10.9 kmh WNW 10.4 mph16.7 kmh 29.78 in1008.5 mb 0.00 in0.0 mm 0.00 in0.0 mm 0.54 in13.7 mm
11:35 AM 68.1°F20.1°C 63.4°F17.4°C 85% 7.0 mph WNW11.3 kmh WNW 10.7 mph17.2 kmh 29.78 in1008.5 mb 0.00 in0.0 mm 0.00 in0.0 mm 0.54 in13.7 mm
11:40 AM 69.0°F20.6°C 64.0°F17.8°C 84% 8.2 mph W13.2 kmh W 14.6 mph23.5 kmh 29.78 in1008.5 mb 0.00 in0.0 mm 0.00 in0.0 mm 0.54 in13.7 mm
11:45 AM 69.0°F20.6°C 63.6°F17.6°C 83% 9.5 mph W15.3 kmh W 14.6 mph23.5 kmh 29.78 in1008.5 mb 0.00 in0.0 mm 0.00 in0.0 mm 0.54 in13.7 mm
11:50 AM 68.8°F20.4°C 63.1°F17.3°C 82% 9.9 mph W15.9 kmh W 14.6 mph23.5 kmh 29.78 in1008.5 mb 0.00 in0.0 mm 0.00 in0.0 mm 0.54 in13.7 mm
11:55 AM 69.0°F20.6°C 62.9°F17.2°C 81% 9.4 mph WNW15.1 kmh WNW 14.6 mph23.5 kmh 29.78 in1008.5 mb 0.00 in0.0 mm 0.00 in0.0 mm 0.54 in13.7 mm
12:00 PM 69.2°F20.7°C 63.1°F17.3°C 81% 7.7 mph W12.4 kmh W 10.4 mph16.7 kmh 29.78 in1008.5 mb 0.00 in0.0 mm 0.00 in0.0 mm 0.54 in13.7 mm
12:05 PM 68.6°F20.3°C 62.2°F16.8°C 80% 8.4 mph W13.5 kmh W 14.6 mph23.5 kmh 29.78 in1008.5 mb 0.00 in0.0 mm 0.00 in0.0 mm 0.54 in13.7 mm
12:10 PM 68.3°F20.2°C 62.2°F16.8°C 81% 10.1 mph W16.3 kmh W 14.6 mph23.5 kmh 29.78 in1008.5 mb 0.00 in0.0 mm 0.00 in0.0 mm 0.54 in13.7 mm
12:15 PM 68.1°F20.1°C 62.0°F16.7°C 81% 9.6 mph W15.4 kmh W 14.6 mph23.5 kmh 29.78 in1008.5 mb 0.00 in0.0 mm 0.00 in0.0 mm 0.54 in13.7 mm
12:20 PM 67.7°F19.8°C 61.7°F16.5°C 81% 7.6 mph W12.2 kmh W 11.6 mph18.7 kmh 29.78 in1008.5 mb 0.00 in0.0 mm 0.00 in0.0 mm 0.54 in13.7 mm
12:25 PM 67.9°F19.9°C 61.9°F16.6°C 81% 6.2 mph W10.0 kmh W 9.5 mph15.3 kmh 29.78 in1008.5 mb 0.00 in0.0 mm 0.00 in0.0 mm 0.54 in13.7 mm
12:30 PM 67.9°F19.9°C 61.9°F16.6°C 81% 7.7 mph WNW12.4 kmh WNW 13.1 mph21.1 kmh 29.78 in1008.5 mb 0.00 in0.0 mm 0.00 in0.0 mm 0.54 in13.7 mm
12:35 PM 68.1°F20.1°C 61.7°F16.5°C 80% 9.4 mph W15.1 kmh W 15.8 mph25.4 kmh 29.78 in1008.5 mb 0.00 in0.0 mm 0.00 in0.0 mm 0.54 in13.7 mm
12:40 PM 68.3°F20.2°C 61.9°F16.6°C 80% 10.6 mph WSW17.1 kmh WSW 15.8 mph25.4 kmh 29.78 in1008.5 mb 0.00 in0.0 mm 0.00 in0.0 mm 0.54 in13.7 mm
12:45 PM 68.4°F20.2°C 62.0°F16.7°C 80% 9.9 mph W15.9 kmh W 14.3 mph23.0 kmh 29.78 in1008.5 mb 0.00 in0.0 mm 0.00 in0.0 mm 0.54 in13.7 mm
12:50 PM 68.4°F20.2°C 61.7°F16.5°C 79% 10.0 mph W16.1 kmh W 14.0 mph22.5 kmh 29.78 in1008.5 mb 0.00 in0.0 mm 0.00 in0.0 mm 0.54 in13.7 mm
12:55 PM 68.4°F20.2°C 62.0°F16.7°C 80% 10.4 mph W16.7 kmh W 14.0 mph22.5 kmh 29.78 in1008.5 mb 0.00 in0.0 mm 0.00 in0.0 mm 0.54 in13.7 mm
01:00 PM 68.4°F20.2°C 61.7°F16.5°C 79% 9.7 mph W15.6 kmh W 13.4 mph21.6 kmh 29.78 in1008.5 mb 0.00 in0.0 mm 0.00 in0.0 mm 0.54 in13.7 mm
01:05 PM 68.4°F20.2°C 61.7°F16.5°C 79% 11.7 mph WSW18.8 kmh WSW 17.6 mph28.3 kmh 29.78 in1008.5 mb 0.00 in0.0 mm 0.00 in0.0 mm 0.54 in13.7 mm
01:10 PM 68.6°F20.3°C 61.9°F16.6°C 79% 12.2 mph W19.6 kmh W 17.6 mph28.3 kmh 29.78 in1008.5 mb 0.00 in0.0 mm 0.00 in0.0 mm 0.54 in13.7 mm
01:15 PM 68.6°F20.3°C 61.9°F16.6°C 79% 9.8 mph W15.8 kmh W 14.9 mph24.0 kmh 29.78 in1008.5 mb 0.00 in0.0 mm 0.00 in0.0 mm 0.54 in13.7 mm
01:20 PM 68.8°F20.4°C 62.0°F16.7°C 79% 9.2 mph WSW14.8 kmh WSW 14.0 mph22.5 kmh 29.78 in1008.5 mb 0.00 in0.0 mm 0.00 in0.0 mm 0.54 in13.7 mm
01:25 PM 69.2°F20.7°C 62.0°F16.7°C 78% 7.8 mph W12.6 kmh W 11.3 mph18.2 kmh 29.78 in1008.5 mb 0.00 in0.0 mm 0.00 in0.0 mm 0.54 in13.7 mm
01:30 PM 69.5°F20.8°C 62.4°F16.9°C 78% 7.0 mph W11.3 kmh W 10.4 mph16.7 kmh 29.78 in1008.5 mb 0.00 in0.0 mm 0.00 in0.0 mm 0.54 in13.7 mm
01:35 PM 69.9°F21.1°C 62.7°F17.1°C 78% 9.3 mph W15.0 kmh W 14.6 mph23.5 kmh 29.78 in1008.5 mb 0.00 in0.0 mm 0.00 in0.0 mm 0.54 in13.7 mm
01:40 PM 70.6°F21.4°C 63.0°F17.2°C 77% 11.2 mph W18.0 kmh W 17.3 mph27.8 kmh 29.78 in1008.5 mb 0.00 in0.0 mm 0.00 in0.0 mm 0.54 in13.7 mm
01:45 PM 70.6°F21.4°C 63.0°F17.2°C 77% 11.6 mph W18.7 kmh W 18.4 mph29.6 kmh 29.78 in1008.5 mb 0.00 in0.0 mm 0.00 in0.0 mm 0.54 in13.7 mm
01:50 PM 71.2°F21.8°C 63.6°F17.6°C 77% 12.1 mph WSW19.5 kmh WSW 18.4 mph29.6 kmh 29.78 in1008.5 mb 0.00 in0.0 mm 0.00 in0.0 mm 0.54 in13.7 mm
01:55 PM 71.3°F21.8°C 63.0°F17.2°C 75% 13.0 mph W20.9 kmh W 20.5 mph33.0 kmh 29.78 in1008.5 mb 0.00 in0.0 mm 0.00 in0.0 mm 0.54 in13.7 mm
02:00 PM 71.0°F21.7°C 62.6°F17.0°C 75% 11.3 mph W18.2 kmh W 20.5 mph33.0 kmh 29.78 in1008.5 mb 0.00 in0.0 mm 0.00 in0.0 mm 0.54 in13.7 mm
02:05 PM 70.6°F21.4°C 61.9°F16.6°C 74% 10.1 mph W16.3 kmh W 13.4 mph21.6 kmh 29.78 in1008.5 mb 0.00 in0.0 mm 0.00 in0.0 mm 0.54 in13.7 mm
02:10 PM 69.7°F20.9°C 60.7°F15.9°C 73% 10.2 mph W16.4 kmh W 12.5 mph20.1 kmh 29.78 in1008.5 mb 0.00 in0.0 mm 0.00 in0.0 mm 0.54 in13.7 mm
02:15 PM 69.9°F21.1°C 60.8°F16.0°C 73% 10.1 mph WNW16.3 kmh WNW 12.8 mph20.6 kmh 29.78 in1008.5 mb 0.00 in0.0 mm 0.00 in0.0 mm 0.54 in13.7 mm
02:20 PM 69.7°F20.9°C 61.0°F16.1°C 74% 9.5 mph NW15.3 kmh NW 14.3 mph23.0 kmh 29.78 in1008.5 mb 0.00 in0.0 mm 0.00 in0.0 mm 0.54 in13.7 mm
02:25 PM 69.5°F20.8°C 61.3°F16.3°C 75% 9.6 mph WNW15.4 kmh WNW 14.3 mph23.0 kmh 29.78 in1008.5 mb 0.00 in0.0 mm 0.00 in0.0 mm 0.54 in13.7 mm
02:30 PM 69.9°F21.1°C 61.6°F16.4°C 75% 8.3 mph W13.4 kmh W 11.6 mph18.7 kmh 29.78 in1008.5 mb 0.00 in0.0 mm 0.00 in0.0 mm 0.54 in13.7 mm
02:35 PM 70.3°F21.3°C 62.0°F16.7°C 75% 6.7 mph WNW10.8 kmh WNW 11.3 mph18.2 kmh 29.78 in1008.5 mb 0.00 in0.0 mm 0.00 in0.0 mm 0.54 in13.7 mm
02:40 PM 70.6°F21.4°C 61.9°F16.6°C 74% 6.8 mph W10.9 kmh W 9.8 mph15.8 kmh 29.78 in1008.5 mb 0.00 in0.0 mm 0.00 in0.0 mm 0.54 in13.7 mm
02:45 PM 70.8°F21.6°C 62.1°F16.7°C 74% 6.5 mph WNW10.5 kmh WNW 9.8 mph15.8 kmh 29.78 in1008.5 mb 0.00 in0.0 mm 0.00 in0.0 mm 0.54 in13.7 mm
02:50 PM 71.2°F21.8°C 61.7°F16.5°C 72% 6.5 mph WNW10.5 kmh WNW 8.6 mph13.8 kmh 29.78 in1008.5 mb 0.00 in0.0 mm 0.00 in0.0 mm 0.54 in13.7 mm
02:55 PM 71.2°F21.8°C 61.7°F16.5°C 72% 7.3 mph NW11.7 kmh NW 9.2 mph14.8 kmh 29.78 in1008.5 mb 0.00 in0.0 mm 0.00 in0.0 mm 0.54 in13.7 mm
03:00 PM 71.0°F21.7°C 61.5°F16.4°C 72% 7.9 mph NW12.7 kmh NW 10.4 mph16.7 kmh 29.78 in1008.5 mb 0.00 in0.0 mm 0.00 in0.0 mm 0.54 in13.7 mm
03:05 PM 70.4°F21.3°C 60.6°F15.9°C 71% 7.8 mph WNW12.6 kmh WNW 10.4 mph16.7 kmh 29.78 in1008.5 mb 0.00 in0.0 mm 0.00 in0.0 mm 0.54 in13.7 mm
03:10 PM 70.4°F21.3°C 60.6°F15.9°C 71% 7.2 mph NW11.6 kmh NW 13.7 mph22.0 kmh 29.78 in1008.5 mb 0.00 in0.0 mm 0.00 in0.0 mm 0.54 in13.7 mm
03:15 PM 70.1°F21.2°C 60.2°F15.7°C 71% 6.5 mph NW10.5 kmh NW 13.7 mph22.0 kmh 29.78 in1008.5 mb 0.00 in0.0 mm 0.00 in0.0 mm 0.54 in13.7 mm
03:20 PM 69.9°F21.1°C 60.1°F15.6°C 71% 5.6 mph WNW9.0 kmh WNW 7.4 mph11.9 kmh 29.78 in1008.5 mb 0.00 in0.0 mm 0.00 in0.0 mm 0.54 in13.7 mm
03:25 PM 69.7°F20.9°C 59.9°F15.5°C 71% 6.7 mph NW10.8 kmh NW 11.6 mph18.7 kmh 29.78 in1008.5 mb 0.00 in0.0 mm 0.00 in0.0 mm 0.54 in13.7 mm
03:30 PM 69.7°F20.9°C 59.9°F15.5°C 71% 6.9 mph NW11.1 kmh NW 11.6 mph18.7 kmh 29.78 in1008.5 mb 0.00 in0.0 mm 0.00 in0.0 mm 0.54 in13.7 mm
03:35 PM 69.5°F20.8°C 59.7°F15.4°C 71% 6.0 mph NW9.7 kmh NW 9.8 mph15.8 kmh 29.81 in1009.5 mb 0.00 in0.0 mm 0.00 in0.0 mm 0.54 in13.7 mm
03:40 PM 69.2°F20.7°C 59.4°F15.2°C 71% 9.5 mph WNW15.3 kmh WNW 16.4 mph26.4 kmh 29.81 in1009.5 mb 0.00 in0.0 mm 0.00 in0.0 mm 0.54 in13.7 mm
03:45 PM 69.0°F20.6°C 59.2°F15.1°C 71% 9.8 mph WNW15.8 kmh WNW 16.4 mph26.4 kmh 29.81 in1009.5 mb 0.00 in0.0 mm 0.00 in0.0 mm 0.54 in13.7 mm
03:50 PM 68.8°F20.4°C 59.0°F15.0°C 71% 8.1 mph WNW13.0 kmh WNW 14.6 mph23.5 kmh 29.81 in1009.5 mb 0.00 in0.0 mm 0.00 in0.0 mm 0.54 in13.7 mm
03:55 PM 68.6°F20.3°C 58.8°F14.9°C 71% 6.1 mph WNW9.8 kmh WNW 10.1 mph16.3 kmh 29.81 in1009.5 mb 0.00 in0.0 mm 0.00 in0.0 mm 0.54 in13.7 mm
04:00 PM 68.6°F20.3°C 58.8°F14.9°C 71% 5.8 mph WNW9.3 kmh WNW 11.6 mph18.7 kmh 29.81 in1009.5 mb 0.00 in0.0 mm 0.00 in0.0 mm 0.54 in13.7 mm
04:05 PM 68.6°F20.3°C 58.8°F14.9°C 71% 6.5 mph W10.5 kmh W 11.6 mph18.7 kmh 29.81 in1009.5 mb 0.00 in0.0 mm 0.00 in0.0 mm 0.54 in13.7 mm
04:10 PM 68.6°F20.3°C 59.2°F15.1°C 72% 6.6 mph W10.6 kmh W 10.1 mph16.3 kmh 29.81 in1009.5 mb 0.00 in0.0 mm 0.00 in0.0 mm 0.54 in13.7 mm
04:15 PM 68.6°F20.3°C 59.2°F15.1°C 72% 6.1 mph WNW9.8 kmh WNW 9.8 mph15.8 kmh 29.81 in1009.5 mb 0.00 in0.0 mm 0.00 in0.0 mm 0.54 in13.7 mm
04:20 PM 68.6°F20.3°C 59.2°F15.1°C 72% 6.0 mph WNW9.7 kmh WNW 9.5 mph15.3 kmh 29.81 in1009.5 mb 0.00 in0.0 mm 0.00 in0.0 mm 0.54 in13.7 mm
04:25 PM 68.6°F20.3°C 59.2°F15.1°C 72% 9.1 mph WNW14.6 kmh WNW 16.7 mph26.9 kmh 29.81 in1009.5 mb 0.00 in0.0 mm 0.00 in0.0 mm 0.54 in13.7 mm
04:30 PM 68.6°F20.3°C 59.2°F15.1°C 72% 10.2 mph WNW16.4 kmh WNW 16.7 mph26.9 kmh 29.81 in1009.5 mb 0.00 in0.0 mm 0.00 in0.0 mm 0.54 in13.7 mm
04:35 PM 68.6°F20.3°C 59.6°F15.3°C 73% 10.0 mph W16.1 kmh W 14.6 mph23.5 kmh 29.81 in1009.5 mb 0.00 in0.0 mm 0.00 in0.0 mm 0.54 in13.7 mm
04:40 PM 68.4°F20.2°C 59.5°F15.3°C 73% 11.4 mph W18.3 kmh W 16.4 mph26.4 kmh 29.81 in1009.5 mb 0.00 in0.0 mm 0.00 in0.0 mm 0.54 in13.7 mm
04:45 PM 68.6°F20.3°C 59.6°F15.3°C 73% 11.5 mph W18.5 kmh W 16.4 mph26.4 kmh 29.81 in1009.5 mb 0.00 in0.0 mm 0.00 in0.0 mm 0.54 in13.7 mm
04:50 PM 68.8°F20.4°C 59.8°F15.4°C 73% 10.6 mph W17.1 kmh W 14.6 mph23.5 kmh 29.81 in1009.5 mb 0.00 in0.0 mm 0.00 in0.0 mm 0.54 in13.7 mm
04:55 PM 69.3°F20.7°C 60.3°F15.7°C 73% 10.1 mph W16.3 kmh W 14.6 mph23.5 kmh 29.81 in1009.5 mb 0.00 in0.0 mm 0.00 in0.0 mm 0.54 in13.7 mm
05:00 PM 69.9°F21.1°C 60.8°F16.0°C 73% 11.3 mph W18.2 kmh W 22.3 mph35.9 kmh 29.81 in1009.5 mb 0.00 in0.0 mm 0.00 in0.0 mm 0.54 in13.7 mm
05:05 PM 69.7°F20.9°C 60.7°F15.9°C 73% 12.3 mph W19.8 kmh W 22.3 mph35.9 kmh 29.84 in1010.5 mb 0.00 in0.0 mm 0.00 in0.0 mm 0.54 in13.7 mm
05:10 PM 69.5°F20.8°C 60.9°F16.1°C 74% 11.7 mph WSW18.8 kmh WSW 19.6 mph31.5 kmh 29.84 in1010.5 mb 0.00 in0.0 mm 0.00 in0.0 mm 0.54 in13.7 mm
05:15 PM 69.3°F20.7°C 60.3°F15.7°C 73% 10.8 mph W17.4 kmh W 18.7 mph30.1 kmh 29.84 in1010.5 mb 0.00 in0.0 mm 0.00 in0.0 mm 0.54 in13.7 mm
05:20 PM 68.8°F20.4°C 59.8°F15.4°C 73% 9.1 mph W14.6 kmh W 11.3 mph18.2 kmh 29.84 in1010.5 mb 0.00 in0.0 mm 0.00 in0.0 mm 0.54 in13.7 mm
05:25 PM 68.4°F20.2°C 59.8°F15.4°C 74% 10.1 mph W16.3 kmh W 14.0 mph22.5 kmh 29.84 in1010.5 mb 0.00 in0.0 mm 0.00 in0.0 mm 0.54 in13.7 mm
05:30 PM 68.6°F20.3°C 60.0°F15.6°C 74% 11.8 mph W19.0 kmh W 16.7 mph26.9 kmh 29.84 in1010.5 mb 0.00 in0.0 mm 0.00 in0.0 mm 0.54 in13.7 mm
05:35 PM 68.8°F20.4°C 60.6°F15.9°C 75% 10.9 mph W17.5 kmh W 17.6 mph28.3 kmh 29.84 in1010.5 mb 0.00 in0.0 mm 0.00 in0.0 mm 0.54 in13.7 mm
05:40 PM 69.2°F20.7°C 60.9°F16.1°C 75% 10.6 mph W17.1 kmh W 17.6 mph28.3 kmh 29.84 in1010.5 mb 0.00 in0.0 mm 0.00 in0.0 mm 0.54 in13.7 mm
05:45 PM 69.5°F20.8°C 60.9°F16.1°C 74% 9.2 mph W14.8 kmh W 11.6 mph18.7 kmh 29.84 in1010.5 mb 0.00 in0.0 mm 0.00 in0.0 mm 0.54 in13.7 mm
05:50 PM 69.5°F20.8°C 60.9°F16.1°C 74% 10.6 mph W17.1 kmh W 15.2 mph24.5 kmh 29.84 in1010.5 mb 0.00 in0.0 mm 0.00 in0.0 mm 0.54 in13.7 mm
05:55 PM 69.5°F20.8°C 60.9°F16.1°C 74% 11.0 mph W17.7 kmh W 15.8 mph25.4 kmh 29.84 in1010.5 mb 0.00 in0.0 mm 0.00 in0.0 mm 0.54 in13.7 mm
06:00 PM 69.5°F20.8°C 60.5°F15.8°C 73% 8.8 mph WNW14.2 kmh WNW 15.8 mph25.4 kmh 29.84 in1010.5 mb 0.00 in0.0 mm 0.00 in0.0 mm 0.54 in13.7 mm
06:05 PM 69.5°F20.8°C 60.1°F15.6°C 72% 7.8 mph WNW12.6 kmh WNW 12.8 mph20.6 kmh 29.84 in1010.5 mb 0.00 in0.0 mm 0.00 in0.0 mm 0.54 in13.7 mm
06:10 PM 69.5°F20.8°C 60.1°F15.6°C 72% 7.4 mph WNW11.9 kmh WNW 11.6 mph18.7 kmh 29.84 in1010.5 mb 0.00 in0.0 mm 0.00 in0.0 mm 0.54 in13.7 mm
06:15 PM 70.1°F21.2°C 59.8°F15.4°C 70% 5.5 mph NW8.9 kmh NW 8.6 mph13.8 kmh 29.84 in1010.5 mb 0.00 in0.0 mm 0.00 in0.0 mm 0.54 in13.7 mm
06:20 PM 70.3°F21.3°C 59.2°F15.1°C 68% 5.7 mph NW9.2 kmh NW 8.6 mph13.8 kmh 29.84 in1010.5 mb 0.00 in0.0 mm 0.00 in0.0 mm 0.54 in13.7 mm
06:25 PM 70.3°F21.3°C 59.2°F15.1°C 68% 5.7 mph W9.2 kmh W 8.6 mph13.8 kmh 29.84 in1010.5 mb 0.00 in0.0 mm 0.00 in0.0 mm 0.54 in13.7 mm
06:30 PM 69.9°F21.1°C 58.4°F14.7°C 67% 5.9 mph W9.5 kmh W 10.7 mph17.2 kmh 29.84 in1010.5 mb 0.00 in0.0 mm 0.00 in0.0 mm 0.54 in13.7 mm
06:35 PM 69.3°F20.7°C 57.5°F14.2°C 66% 6.6 mph WNW10.6 kmh WNW 10.7 mph17.2 kmh 29.84 in1010.5 mb 0.00 in0.0 mm 0.00 in0.0 mm 0.54 in13.7 mm
06:40 PM 69.0°F20.6°C 57.2°F14.0°C 66% 7.3 mph WNW11.7 kmh WNW 14.0 mph22.5 kmh 29.84 in1010.5 mb 0.00 in0.0 mm 0.00 in0.0 mm 0.54 in13.7 mm
06:45 PM 68.4°F20.2°C 56.6°F13.7°C 66% 6.1 mph WNW9.8 kmh WNW 14.0 mph22.5 kmh 29.84 in1010.5 mb 0.00 in0.0 mm 0.00 in0.0 mm 0.54 in13.7 mm
06:50 PM 67.9°F19.9°C 55.7°F13.2°C 65% 5.4 mph WNW8.7 kmh WNW 8.0 mph12.9 kmh 29.84 in1010.5 mb 0.00 in0.0 mm 0.00 in0.0 mm 0.54 in13.7 mm
06:55 PM 67.7°F19.8°C 55.5°F13.1°C 65% 6.5 mph WNW10.5 kmh WNW 11.6 mph18.7 kmh 29.84 in1010.5 mb 0.00 in0.0 mm 0.00 in0.0 mm 0.54 in13.7 mm
07:00 PM 67.4°F19.7°C 55.2°F12.9°C 65% 7.3 mph WNW11.7 kmh WNW 11.6 mph18.7 kmh 29.84 in1010.5 mb 0.00 in0.0 mm 0.00 in0.0 mm 0.54 in13.7 mm
07:05 PM 67.0°F19.4°C 54.9°F12.7°C 65% 6.6 mph WNW10.6 kmh WNW 8.6 mph13.8 kmh 29.87 in1011.5 mb 0.00 in0.0 mm 0.00 in0.0 mm 0.54 in13.7 mm
07:10 PM 66.8°F19.3°C 54.7°F12.6°C 65% 6.2 mph NW10.0 kmh NW 8.6 mph13.8 kmh 29.87 in1011.5 mb 0.00 in0.0 mm 0.00 in0.0 mm 0.54 in13.7 mm
07:15 PM 66.5°F19.2°C 54.8°F12.7°C 66% 6.1 mph NW9.8 kmh NW 8.6 mph13.8 kmh 29.87 in1011.5 mb 0.00 in0.0 mm 0.00 in0.0 mm 0.54 in13.7 mm
07:20 PM 65.9°F18.8°C 54.2°F12.3°C 66% 4.7 mph NW7.6 kmh NW 7.1 mph11.4 kmh 29.87 in1011.5 mb 0.00 in0.0 mm 0.00 in0.0 mm 0.54 in13.7 mm
07:25 PM 65.8°F18.8°C 54.1°F12.3°C 66% 4.9 mph WNW7.9 kmh WNW 7.7 mph12.4 kmh 29.87 in1011.5 mb 0.00 in0.0 mm 0.00 in0.0 mm 0.54 in13.7 mm
07:30 PM 65.6°F18.7°C 54.3°F12.4°C 67% 6.3 mph WNW10.1 kmh WNW 8.3 mph13.4 kmh 29.87 in1011.5 mb 0.00 in0.0 mm 0.00 in0.0 mm 0.54 in13.7 mm
07:35 PM 65.2°F18.4°C 54.0°F12.2°C 67% 6.2 mph NW10.0 kmh NW 8.3 mph13.4 kmh 29.87 in1011.5 mb 0.00 in0.0 mm 0.00 in0.0 mm 0.54 in13.7 mm
07:40 PM 65.0°F18.3°C 53.8°F12.1°C 67% 4.8 mph NW7.7 kmh NW 6.5 mph10.5 kmh 29.87 in1011.5 mb 0.00 in0.0 mm 0.00 in0.0 mm 0.54 in13.7 mm
07:45 PM 64.7°F18.2°C 53.9°F12.2°C 68% 5.3 mph NW8.5 kmh NW 8.0 mph12.9 kmh 29.87 in1011.5 mb 0.00 in0.0 mm 0.00 in0.0 mm 0.54 in13.7 mm
07:50 PM 64.5°F18.1°C 53.7°F12.1°C 68% 5.4 mph NW8.7 kmh NW 8.0 mph12.9 kmh 29.87 in1011.5 mb 0.00 in0.0 mm 0.00 in0.0 mm 0.54 in13.7 mm
07:55 PM 64.5°F18.1°C 53.7°F12.1°C 68% 5.3 mph WNW8.5 kmh WNW 7.7 mph12.4 kmh 29.87 in1011.5 mb 0.00 in0.0 mm 0.00 in0.0 mm 0.54 in13.7 mm
08:00 PM 64.3°F17.9°C 53.5°F11.9°C 68% 6.0 mph W9.7 kmh W 8.0 mph12.9 kmh 29.87 in1011.5 mb 0.00 in0.0 mm 0.00 in0.0 mm 0.54 in13.7 mm
08:05 PM 64.0°F17.8°C 53.6°F12.0°C 69% 4.3 mph WNW6.9 kmh WNW 8.0 mph12.9 kmh 29.87 in1011.5 mb 0.00 in0.0 mm 0.00 in0.0 mm 0.54 in13.7 mm
08:10 PM 63.8°F17.7°C 53.4°F11.9°C 69% 2.8 mph NW4.5 kmh NW 4.8 mph7.7 kmh 29.87 in1011.5 mb 0.00 in0.0 mm 0.00 in0.0 mm 0.54 in13.7 mm
08:15 PM 63.6°F17.6°C 53.6°F12.0°C 70% 2.8 mph NW4.5 kmh NW 5.4 mph8.7 kmh 29.87 in1011.5 mb 0.00 in0.0 mm 0.00 in0.0 mm 0.54 in13.7 mm
08:20 PM 63.2°F17.3°C 53.3°F11.8°C 70% 4.4 mph NW7.1 kmh NW 7.4 mph11.9 kmh 29.90 in1012.5 mb 0.00 in0.0 mm 0.00 in0.0 mm 0.54 in13.7 mm
08:25 PM 63.2°F17.3°C 53.3°F11.8°C 70% 4.6 mph NW7.4 kmh NW 7.4 mph11.9 kmh 29.90 in1012.5 mb 0.00 in0.0 mm 0.00 in0.0 mm 0.54 in13.7 mm
08:30 PM 63.0°F17.2°C 53.5°F11.9°C 71% 4.4 mph NW7.1 kmh NW 7.1 mph11.4 kmh 29.90 in1012.5 mb 0.00 in0.0 mm 0.00 in0.0 mm 0.54 in13.7 mm
08:35 PM 63.0°F17.2°C 53.5°F11.9°C 71% 4.9 mph NW7.9 kmh NW 7.1 mph11.4 kmh 29.90 in1012.5 mb 0.00 in0.0 mm 0.00 in0.0 mm 0.54 in13.7 mm
08:40 PM 62.9°F17.2°C 53.3°F11.8°C 71% 4.2 mph NW6.8 kmh NW 5.7 mph9.2 kmh 29.90 in1012.5 mb 0.00 in0.0 mm 0.00 in0.0 mm 0.54 in13.7 mm
08:45 PM 62.7°F17.1°C 53.1°F11.7°C 71% 4.0 mph NW6.4 kmh NW 5.1 mph8.2 kmh 29.90 in1012.5 mb 0.00 in0.0 mm 0.00 in0.0 mm 0.54 in13.7 mm
08:50 PM 62.7°F17.1°C 53.1°F11.7°C 71% 4.0 mph WNW6.4 kmh WNW 5.1 mph8.2 kmh 29.90 in1012.5 mb 0.00 in0.0 mm 0.00 in0.0 mm 0.54 in13.7 mm
08:55 PM 62.5°F16.9°C 53.4°F11.9°C 72% 3.9 mph WNW6.3 kmh WNW 5.1 mph8.2 kmh 29.90 in1012.5 mb 0.00 in0.0 mm 0.00 in0.0 mm 0.54 in13.7 mm
09:00 PM 62.3°F16.8°C 53.2°F11.8°C 72% 3.9 mph WNW6.3 kmh WNW 5.1 mph8.2 kmh 29.90 in1012.5 mb 0.00 in0.0 mm 0.00 in0.0 mm 0.54 in13.7 mm
09:05 PM 62.3°F16.8°C 53.2°F11.8°C 72% 4.1 mph WNW6.6 kmh WNW 6.0 mph9.7 kmh 29.90 in1012.5 mb 0.00 in0.0 mm 0.00 in0.0 mm 0.54 in13.7 mm
09:10 PM 62.2°F16.8°C 53.0°F11.7°C 72% 3.9 mph WNW6.3 kmh WNW 6.0 mph9.7 kmh 29.90 in1012.5 mb 0.00 in0.0 mm 0.00 in0.0 mm 0.54 in13.7 mm
09:15 PM 62.0°F16.7°C 52.8°F11.6°C 72% 4.3 mph WNW6.9 kmh WNW 8.6 mph13.8 kmh 29.90 in1012.5 mb 0.00 in0.0 mm 0.00 in0.0 mm 0.54 in13.7 mm
09:20 PM 62.0°F16.7°C 52.8°F11.6°C 72% 4.2 mph WNW6.8 kmh WNW 8.6 mph13.8 kmh 29.90 in1012.5 mb 0.00 in0.0 mm 0.00 in0.0 mm 0.54 in13.7 mm
09:25 PM 61.8°F16.6°C 53.0°F11.7°C 73% 3.7 mph WNW6.0 kmh WNW 5.4 mph8.7 kmh 29.90 in1012.5 mb 0.00 in0.0 mm 0.00 in0.0 mm 0.54 in13.7 mm
09:30 PM 61.6°F16.4°C 52.9°F11.6°C 73% 3.9 mph WNW6.3 kmh WNW 5.1 mph8.2 kmh 29.90 in1012.5 mb 0.00 in0.0 mm 0.00 in0.0 mm 0.54 in13.7 mm
09:35 PM 61.4°F16.3°C 52.7°F11.5°C 73% 4.3 mph WNW6.9 kmh WNW 5.4 mph8.7 kmh 29.90 in1012.5 mb 0.00 in0.0 mm 0.00 in0.0 mm 0.54 in13.7 mm
09:40 PM 61.4°F16.3°C 53.1°F11.7°C 74% 4.3 mph WNW6.9 kmh WNW 5.4 mph8.7 kmh 29.90 in1012.5 mb 0.00 in0.0 mm 0.00 in0.0 mm 0.54 in13.7 mm
09:45 PM 61.3°F16.3°C 53.3°F11.8°C 75% 3.5 mph WNW5.6 kmh WNW 5.1 mph8.2 kmh 29.90 in1012.5 mb 0.00 in0.0 mm 0.00 in0.0 mm 0.54 in13.7 mm
09:50 PM 61.3°F16.3°C 53.6°F12.0°C 76% 3.1 mph W5.0 kmh W 4.5 mph7.2 kmh 29.90 in1012.5 mb 0.00 in0.0 mm 0.00 in0.0 mm 0.54 in13.7 mm
09:55 PM 61.1°F16.2°C 53.4°F11.9°C 76% 3.7 mph W6.0 kmh W 5.4 mph8.7 kmh 29.90 in1012.5 mb 0.00 in0.0 mm 0.00 in0.0 mm 0.54 in13.7 mm
10:00 PM 61.1°F16.2°C 53.4°F11.9°C 76% 4.8 mph WNW7.7 kmh WNW 6.5 mph10.5 kmh 29.90 in1012.5 mb 0.00 in0.0 mm 0.00 in0.0 mm 0.54 in13.7 mm
10:05 PM 61.1°F16.2°C 53.8°F12.1°C 77% 4.5 mph WNW7.2 kmh WNW 6.5 mph10.5 kmh 29.90 in1012.5 mb 0.00 in0.0 mm 0.00 in0.0 mm 0.54 in13.7 mm
10:10 PM 61.1°F16.2°C 53.8°F12.1°C 77% 4.1 mph WNW6.6 kmh WNW 5.4 mph8.7 kmh 29.90 in1012.5 mb 0.00 in0.0 mm 0.00 in0.0 mm 0.54 in13.7 mm
10:15 PM 61.1°F16.2°C 53.8°F12.1°C 77% 3.6 mph W5.8 kmh W 5.4 mph8.7 kmh 29.90 in1012.5 mb 0.00 in0.0 mm 0.00 in0.0 mm 0.54 in13.7 mm
10:20 PM 60.9°F16.1°C 53.6°F12.0°C 77% 3.2 mph W5.1 kmh W 4.2 mph6.8 kmh 29.90 in1012.5 mb 0.00 in0.0 mm 0.00 in0.0 mm 0.54 in13.7 mm
10:25 PM 60.9°F16.1°C 54.0°F12.2°C 78% 3.8 mph WNW6.1 kmh WNW 7.1 mph11.4 kmh 29.90 in1012.5 mb 0.00 in0.0 mm 0.00 in0.0 mm 0.54 in13.7 mm
10:30 PM 60.7°F15.9°C 53.8°F12.1°C 78% 3.8 mph WNW6.1 kmh WNW 7.1 mph11.4 kmh 29.90 in1012.5 mb 0.00 in0.0 mm 0.00 in0.0 mm 0.54 in13.7 mm
10:35 PM 60.7°F15.9°C 53.8°F12.1°C 78% 2.7 mph NW4.3 kmh NW 4.5 mph7.2 kmh 29.90 in1012.5 mb 0.00 in0.0 mm 0.00 in0.0 mm 0.54 in13.7 mm
10:40 PM 60.7°F15.9°C 54.2°F12.3°C 79% 3.3 mph WNW5.3 kmh WNW 5.7 mph9.2 kmh 29.90 in1012.5 mb 0.00 in0.0 mm 0.00 in0.0 mm 0.54 in13.7 mm
10:45 PM 60.7°F15.9°C 54.2°F12.3°C 79% 3.9 mph WNW6.3 kmh WNW 5.7 mph9.2 kmh 29.90 in1012.5 mb 0.00 in0.0 mm 0.00 in0.0 mm 0.54 in13.7 mm
10:50 PM 60.5°F15.8°C 54.0°F12.2°C 79% 3.6 mph WNW5.8 kmh WNW 5.7 mph9.2 kmh 29.90 in1012.5 mb 0.00 in0.0 mm 0.00 in0.0 mm 0.54 in13.7 mm
10:55 PM 60.5°F15.8°C 54.3°F12.4°C 80% 4.0 mph NW6.4 kmh NW 5.4 mph8.7 kmh 29.90 in1012.5 mb 0.00 in0.0 mm 0.00 in0.0 mm 0.54 in13.7 mm
11:00 PM 60.5°F15.8°C 54.3°F12.4°C 80% 4.0 mph WNW6.4 kmh WNW 5.4 mph8.7 kmh 29.90 in1012.5 mb 0.00 in0.0 mm 0.00 in0.0 mm 0.54 in13.7 mm
11:05 PM 60.3°F15.7°C 54.2°F12.3°C 80% 2.7 mph WNW4.3 kmh WNW 3.9 mph6.3 kmh 29.90 in1012.5 mb 0.00 in0.0 mm 0.00 in0.0 mm 0.54 in13.7 mm
11:10 PM 60.2°F15.7°C 54.0°F12.2°C 80% 2.0 mph NW3.2 kmh NW 4.2 mph6.8 kmh 29.90 in1012.5 mb 0.00 in0.0 mm 0.00 in0.0 mm 0.54 in13.7 mm
11:15 PM 60.0°F15.6°C 54.1°F12.3°C 81% 2.2 mph NW3.5 kmh NW 4.2 mph6.8 kmh 29.90 in1012.5 mb 0.00 in0.0 mm 0.00 in0.0 mm 0.54 in13.7 mm
11:20 PM 60.0°F15.6°C 54.1°F12.3°C 81% 3.1 mph NW5.0 kmh NW 4.2 mph6.8 kmh 29.90 in1012.5 mb 0.00 in0.0 mm 0.00 in0.0 mm 0.54 in13.7 mm
11:25 PM 60.0°F15.6°C 54.5°F12.5°C 82% 3.5 mph WNW5.6 kmh WNW 4.5 mph7.2 kmh 29.90 in1012.5 mb 0.00 in0.0 mm 0.00 in0.0 mm 0.54 in13.7 mm
11:30 PM 60.0°F15.6°C 54.5°F12.5°C 82% 3.9 mph WNW6.3 kmh WNW 5.7 mph9.2 kmh 29.90 in1012.5 mb 0.00 in0.0 mm 0.00 in0.0 mm 0.54 in13.7 mm
11:35 PM 60.0°F15.6°C 54.5°F12.5°C 82% 4.1 mph NW6.6 kmh NW 5.7 mph9.2 kmh 29.90 in1012.5 mb 0.00 in0.0 mm 0.00 in0.0 mm 0.54 in13.7 mm
11:40 PM 60.2°F15.7°C 55.0°F12.8°C 83% 4.2 mph NW6.8 kmh NW 5.7 mph9.2 kmh 29.90 in1012.5 mb 0.00 in0.0 mm 0.00 in0.0 mm 0.54 in13.7 mm
11:45 PM 60.7°F15.9°C 55.8°F13.2°C 84% 4.9 mph NW7.9 kmh NW 7.7 mph12.4 kmh 29.90 in1012.5 mb 0.00 in0.0 mm 0.00 in0.0 mm 0.54 in13.7 mm
11:50 PM 61.1°F16.2°C 56.2°F13.4°C 84% 6.1 mph NW9.8 kmh NW 8.3 mph13.4 kmh 29.90 in1012.5 mb 0.00 in0.0 mm 0.00 in0.0 mm 0.54 in13.7 mm
11:55 PM 61.4°F16.3°C 56.6°F13.7°C 84% 6.8 mph WNW10.9 kmh WNW 8.3 mph13.4 kmh 29.90 in1012.5 mb 0.00 in0.0 mm 0.00 in0.0 mm 0.54 in13.7 mm